createdAt,value
2023-01-19T00:01:43.677Z,2.92
2023-01-19T00:04:11.786Z,2.87
2023-01-19T00:06:41.827Z,2.69
2023-01-19T00:09:09.793Z,2.80
2023-01-19T00:11:40.383Z,2.89
2023-01-19T00:14:08.361Z,3.04
2023-01-19T00:16:36.457Z,3.17
2023-01-19T00:19:04.817Z,3.21
2023-01-19T00:21:32.923Z,3.19
2023-01-19T00:24:02.168Z,3.31
2023-01-19T00:26:30.303Z,3.17
2023-01-19T00:29:00.489Z,2.78
2023-01-19T00:31:29.896Z,3.19
2023-01-19T00:33:57.796Z,3.05
2023-01-19T00:36:25.607Z,3.06
2023-01-19T00:38:53.427Z,3.05
2023-01-19T00:41:42.884Z,3.02
2023-01-19T00:44:10.252Z,2.99
2023-01-19T00:46:38.727Z,3.06
2023-01-19T00:49:07.187Z,3.05
2023-01-19T00:51:35.174Z,3.06
2023-01-19T00:54:10.297Z,3.17
2023-01-19T00:56:39.719Z,2.94
2023-01-19T00:59:07.855Z,3.09
2023-01-19T01:01:45.144Z,3.04
2023-01-19T01:04:14.904Z,2.98
2023-01-19T01:06:43.381Z,3.15
2023-01-19T01:09:13.404Z,2.88
2023-01-19T01:11:44.441Z,3.02
2023-01-19T01:14:14.413Z,2.94
2023-01-19T01:16:42.611Z,3.06
2023-01-19T01:19:10.856Z,3.19
2023-01-19T01:21:39.016Z,2.87
2023-01-19T01:24:08.202Z,3.13
2023-01-19T01:26:36.227Z,3.10
2023-01-19T01:29:08.466Z,2.83
2023-01-19T01:31:36.742Z,2.94
2023-01-19T01:34:04.733Z,3.09
2023-01-19T01:36:33.525Z,3.16
2023-01-19T01:39:04.414Z,3.10
2023-01-19T01:41:32.771Z,3.11
2023-01-19T01:44:03.110Z,3.20
2023-01-19T01:46:34.277Z,3.26
2023-01-19T01:49:08.979Z,3.24
2023-01-19T01:51:43.618Z,3.21
2023-01-19T01:54:19.445Z,3.10
2023-01-19T01:56:51.563Z,3.14
2023-01-19T01:59:27.333Z,3.53
2023-01-19T02:02:20.279Z,3.41
2023-01-19T02:04:53.513Z,3.31
2023-01-19T02:07:49.093Z,3.36
2023-01-19T02:10:35.255Z,3.52
2023-01-19T02:13:20.579Z,3.63
2023-01-19T02:15:51.783Z,3.53
2023-01-19T02:18:23.944Z,3.35
2023-01-19T02:21:12.448Z,3.60
2023-01-19T02:23:46.435Z,3.52
2023-01-19T02:26:20.800Z,3.35
2023-01-19T02:28:54.992Z,3.50
2023-01-19T02:31:23.560Z,3.49
2023-01-19T02:33:54.499Z,3.62
2023-01-19T02:36:27.573Z,3.71
2023-01-19T02:39:01.114Z,3.56
2023-01-19T02:41:35.696Z,3.69
2023-01-19T02:44:07.292Z,3.61
2023-01-19T02:46:35.845Z,3.82
2023-01-19T02:49:03.846Z,3.75
2023-01-19T02:51:32.183Z,3.75
2023-01-19T02:54:37.320Z,3.79
2023-01-19T02:57:33.316Z,3.82
2023-01-19T03:00:22.410Z,3.77
2023-01-19T03:03:07.049Z,3.50
2023-01-19T03:05:56.927Z,3.72
2023-01-19T03:08:44.067Z,3.74
2023-01-19T03:11:15.523Z,3.71
2023-01-19T03:13:50.992Z,3.49
2023-01-19T03:16:26.131Z,3.49
2023-01-19T03:19:00.285Z,3.63
2023-01-19T03:21:30.689Z,3.40
2023-01-19T03:24:05.537Z,3.47
2023-01-19T03:26:44.000Z,3.23
2023-01-19T03:29:16.718Z,3.13
2023-01-19T03:31:48.972Z,2.99
2023-01-19T03:34:22.020Z,3.19
2023-01-19T03:36:55.252Z,3.02
2023-01-19T03:39:25.384Z,3.07
2023-01-19T03:42:01.395Z,2.87
2023-01-19T03:44:32.337Z,2.73
2023-01-19T03:47:02.554Z,2.67
2023-01-19T03:49:32.447Z,2.63
2023-01-19T03:52:01.250Z,2.64
2023-01-19T03:54:29.499Z,2.53
2023-01-19T03:56:59.192Z,2.53
2023-01-19T03:59:27.483Z,2.86
2023-01-19T04:01:55.662Z,2.82
2023-01-19T04:04:23.654Z,2.79
2023-01-19T04:06:51.699Z,2.63
2023-01-19T04:09:20.251Z,2.90
2023-01-19T04:11:48.292Z,2.75
2023-01-19T04:14:17.803Z,2.93
2023-01-19T04:16:45.907Z,2.91
2023-01-19T04:19:13.937Z,2.88
2023-01-19T04:21:41.811Z,2.89
2023-01-19T04:24:11.405Z,3.02
2023-01-19T04:26:40.086Z,2.79
2023-01-19T04:29:07.955Z,2.86
2023-01-19T04:31:37.405Z,2.70
2023-01-19T04:34:06.155Z,2.81
2023-01-19T04:36:34.076Z,3.00
2023-01-19T04:39:01.817Z,3.16
2023-01-19T04:41:31.143Z,3.07
2023-01-19T04:43:59.742Z,3.22
2023-01-19T04:46:30.176Z,3.38
2023-01-19T04:49:00.608Z,3.19
2023-01-19T04:51:28.808Z,3.56
2023-01-19T04:53:57.754Z,3.41
2023-01-19T04:56:25.801Z,3.46
2023-01-19T04:58:54.023Z,3.51
2023-01-19T05:01:22.240Z,3.53
2023-01-19T05:03:50.185Z,3.54
2023-01-19T05:06:19.447Z,3.35
2023-01-19T05:08:47.378Z,3.27
2023-01-19T05:11:15.327Z,3.30
2023-01-19T05:13:43.666Z,3.61
2023-01-19T05:16:14.003Z,3.55
2023-01-19T05:18:42.023Z,3.61
2023-01-19T05:21:10.100Z,3.50
2023-01-19T05:23:39.583Z,3.35
2023-01-19T05:26:09.514Z,3.50
2023-01-19T05:28:38.019Z,3.09
2023-01-19T05:31:06.132Z,3.12
2023-01-19T05:33:33.993Z,3.37
2023-01-19T05:36:02.063Z,3.15
2023-01-19T05:38:35.371Z,3.35
2023-01-19T05:41:04.997Z,3.20
2023-01-19T05:43:32.894Z,3.18
2023-01-19T05:46:00.655Z,3.16
2023-01-19T05:48:28.673Z,3.46
2023-01-19T05:51:00.044Z,3.55
2023-01-19T05:53:28.928Z,3.29
2023-01-19T05:56:01.823Z,3.53
2023-01-19T05:58:31.128Z,3.44
2023-01-19T06:01:03.409Z,3.39
2023-01-19T06:03:31.285Z,3.46
2023-01-19T06:05:59.869Z,3.56
2023-01-19T06:08:28.899Z,3.58
2023-01-19T06:10:57.056Z,3.53
2023-01-19T06:13:24.835Z,3.39
2023-01-19T06:15:59.783Z,3.51
2023-01-19T06:18:29.698Z,3.38
2023-01-19T06:20:59.529Z,3.39
2023-01-19T06:23:28.022Z,3.58
2023-01-19T06:25:55.829Z,3.33
2023-01-19T06:28:24.031Z,3.83
2023-01-19T06:30:53.406Z,3.74
2023-01-19T06:33:25.194Z,3.73
2023-01-19T06:35:53.489Z,4.06
2023-01-19T06:38:22.162Z,4.08
2023-01-19T06:40:58.449Z,3.83
2023-01-19T06:43:27.678Z,3.95
2023-01-19T06:45:56.316Z,3.91
2023-01-19T06:48:25.912Z,4.09
2023-01-19T06:50:53.783Z,4.54
2023-01-19T06:53:22.480Z,4.16
2023-01-19T06:55:50.348Z,4.23
2023-01-19T06:58:18.633Z,3.92
2023-01-19T07:00:46.501Z,4.14
2023-01-19T07:03:22.406Z,4.16
2023-01-19T07:05:56.858Z,4.09
2023-01-19T07:08:25.127Z,3.99
2023-01-19T07:11:25.419Z,3.83
2023-01-19T07:13:44.705Z,3.67
2023-01-19T07:16:14.354Z,3.86
2023-01-19T07:18:42.285Z,3.80
2023-01-19T07:21:11.765Z,3.90
2023-01-19T07:23:39.753Z,4.17
2023-01-19T07:26:08.189Z,4.24
2023-01-19T07:28:37.035Z,4.07
2023-01-19T07:31:05.215Z,4.21
2023-01-19T07:33:33.209Z,4.19
2023-01-19T07:36:01.213Z,4.20
2023-01-19T07:38:30.396Z,4.39
2023-01-19T07:41:02.279Z,4.85
2023-01-19T07:43:30.287Z,4.20
2023-01-19T07:45:59.454Z,4.29
2023-01-19T07:48:28.813Z,4.27
2023-01-19T07:51:01.333Z,4.19
2023-01-19T07:53:30.479Z,4.61
2023-01-19T07:55:58.963Z,4.91
2023-01-19T07:58:27.469Z,5.09
2023-01-19T08:00:55.349Z,5.28
2023-01-19T08:03:23.682Z,5.28
2023-01-19T08:05:53.297Z,5.34
2023-01-19T08:08:21.619Z,4.93
2023-01-19T08:10:53.161Z,4.85
2023-01-19T08:13:20.994Z,4.82
2023-01-19T08:15:51.653Z,4.44
2023-01-19T08:18:20.970Z,4.63
2023-01-19T08:20:48.982Z,4.63
2023-01-19T08:23:18.029Z,5.20
2023-01-19T08:25:45.993Z,4.95
2023-01-19T08:28:18.002Z,5.53
2023-01-19T08:30:46.132Z,5.20
2023-01-19T08:33:14.854Z,4.83
2023-01-19T08:35:48.896Z,4.42
2023-01-19T08:38:17.058Z,4.41
2023-01-19T08:40:45.492Z,4.75
2023-01-19T08:43:17.272Z,4.74
2023-01-19T08:45:52.110Z,4.27
2023-01-19T08:48:23.472Z,4.72
2023-01-19T08:50:53.402Z,4.77
2023-01-19T08:53:23.544Z,4.34
2023-01-19T08:55:55.923Z,4.39
2023-01-19T08:58:25.629Z,4.23
2023-01-19T09:00:54.004Z,4.31
2023-01-19T09:03:23.121Z,4.30
2023-01-19T09:05:51.825Z,4.71
2023-01-19T09:08:20.178Z,4.54
2023-01-19T09:10:50.834Z,4.69
2023-01-19T09:13:19.783Z,5.02
2023-01-19T09:15:49.208Z,5.12
2023-01-19T09:18:20.424Z,5.17
2023-01-19T09:20:51.123Z,5.31
2023-01-19T09:23:22.090Z,5.36
2023-01-19T09:26:00.005Z,6.18
2023-01-19T09:28:29.402Z,6.12
2023-01-19T09:31:00.174Z,6.08
2023-01-19T09:33:29.326Z,6.19
2023-01-19T09:35:57.363Z,6.26
2023-01-19T09:38:26.036Z,5.91
2023-01-19T09:40:57.162Z,5.49
2023-01-19T09:43:40.410Z,5.57
2023-01-19T09:46:16.814Z,5.40
2023-01-19T09:48:49.181Z,5.16
2023-01-19T09:51:22.645Z,5.54
2023-01-19T09:54:01.111Z,5.42
2023-01-19T09:56:31.764Z,5.80
2023-01-19T09:59:01.478Z,5.32
2023-01-19T10:01:48.377Z,5.61
2023-01-19T10:04:30.144Z,5.77
2023-01-19T10:07:17.128Z,5.62
2023-01-19T10:10:07.131Z,5.79
2023-01-19T10:12:59.845Z,5.63
2023-01-19T10:15:47.258Z,6.04
2023-01-19T10:18:20.982Z,6.10
2023-01-19T10:20:55.114Z,6.25
2023-01-19T10:23:40.507Z,6.34
2023-01-19T10:26:17.074Z,6.54
2023-01-19T10:28:49.501Z,6.80
2023-01-19T10:31:22.790Z,6.57
2023-01-19T10:33:54.092Z,6.08
2023-01-19T10:36:28.983Z,6.62
2023-01-19T10:38:56.792Z,7.10
2023-01-19T10:41:32.982Z,7.10
2023-01-19T10:44:03.597Z,7.19
2023-01-19T10:46:43.159Z,7.90
2023-01-19T10:49:27.305Z,7.96
2023-01-19T10:51:57.528Z,8.03
2023-01-19T10:54:27.531Z,7.73
2023-01-19T10:57:00.528Z,7.90
2023-01-19T10:59:36.455Z,7.69
2023-01-19T11:02:18.927Z,7.78
2023-01-19T11:04:51.254Z,7.76
2023-01-19T11:07:23.698Z,7.94
2023-01-19T11:10:21.106Z,7.61
2023-01-19T11:13:00.940Z,7.31
2023-01-19T11:15:36.294Z,7.29
2023-01-19T11:18:07.432Z,7.44
2023-01-19T11:20:52.836Z,7.45
2023-01-19T11:23:29.082Z,7.87
2023-01-19T11:26:01.635Z,7.92
2023-01-19T11:28:35.376Z,8.18
2023-01-19T11:31:18.955Z,7.86
2023-01-19T11:33:52.854Z,7.55
2023-01-19T11:36:25.151Z,7.65
2023-01-19T11:38:55.952Z,7.17
2023-01-19T11:41:29.431Z,8.05
2023-01-19T11:44:02.709Z,8.15
2023-01-19T11:46:39.247Z,7.76
2023-01-19T11:49:21.561Z,7.67
2023-01-19T11:52:05.311Z,7.53
2023-01-19T11:54:41.579Z,7.75
2023-01-19T11:57:17.548Z,8.36
2023-01-19T11:59:46.622Z,8.40
2023-01-19T12:02:27.792Z,8.46
2023-01-19T12:05:03.333Z,8.66
2023-01-19T12:07:37.742Z,8.90
2023-01-19T12:10:21.774Z,8.59
2023-01-19T12:12:50.182Z,8.78
2023-01-19T12:15:34.217Z,8.66
2023-01-19T12:18:06.095Z,8.13
2023-01-19T12:20:39.560Z,8.12
2023-01-19T12:23:29.264Z,8.19
2023-01-19T12:26:18.499Z,8.41
2023-01-19T12:28:49.350Z,7.69
2023-01-19T12:31:20.487Z,7.89
2023-01-19T12:33:49.794Z,7.36
2023-01-19T12:36:40.216Z,7.92
2023-01-19T12:39:21.979Z,7.29
2023-01-19T12:42:06.257Z,7.73
2023-01-19T12:44:35.146Z,8.22
2023-01-19T12:47:22.160Z,7.80
2023-01-19T12:49:55.285Z,8.74
2023-01-19T12:52:34.653Z,9.12
2023-01-19T12:55:20.949Z,9.41
2023-01-19T12:57:59.783Z,9.38
2023-01-19T13:00:35.758Z,9.75
2023-01-19T13:03:21.637Z,9.74
2023-01-19T13:05:54.293Z,10.02
2023-01-19T13:08:30.370Z,9.74
2023-01-19T13:11:23.825Z,8.90
2023-01-19T13:14:37.091Z,9.07
2023-01-19T13:17:23.146Z,9.83
2023-01-19T13:20:00.862Z,9.32
2023-01-19T13:23:15.410Z,9.88
2023-01-19T13:26:07.450Z,10.06
2023-01-19T13:28:43.231Z,10.21
2023-01-19T13:31:13.212Z,10.18
2023-01-19T13:33:50.540Z,9.85
2023-01-19T13:36:26.755Z,9.12
2023-01-19T13:38:58.355Z,9.08
2023-01-19T13:41:32.368Z,8.50
2023-01-19T13:44:06.557Z,8.85
2023-01-19T13:46:34.997Z,9.22
2023-01-19T13:49:16.507Z,9.33
2023-01-19T13:51:44.699Z,9.18
2023-01-19T13:54:17.856Z,8.14
2023-01-19T13:56:50.157Z,8.27
2023-01-19T13:59:19.570Z,7.80
2023-01-19T14:01:49.177Z,8.06
2023-01-19T14:04:31.335Z,7.72
2023-01-19T14:07:04.573Z,7.65
2023-01-19T14:09:32.769Z,7.94
2023-01-19T14:12:13.225Z,8.15
2023-01-19T14:14:44.166Z,7.56
2023-01-19T14:17:26.010Z,7.79
2023-01-19T14:19:56.518Z,8.22
2023-01-19T14:22:39.957Z,7.81
2023-01-19T14:25:31.951Z,7.44
2023-01-19T14:28:29.499Z,7.77
2023-01-19T14:31:02.107Z,7.26
2023-01-19T14:33:41.548Z,7.78
2023-01-19T14:36:27.623Z,7.04
2023-01-19T14:38:59.013Z,7.59
2023-01-19T14:41:37.064Z,7.33
2023-01-19T14:44:10.584Z,7.37
2023-01-19T14:46:47.018Z,7.59
2023-01-19T14:49:22.663Z,7.03
2023-01-19T14:51:51.790Z,7.24
2023-01-19T14:54:32.409Z,7.24
2023-01-19T14:57:00.464Z,6.78
2023-01-19T14:59:28.393Z,6.81
2023-01-19T15:01:59.675Z,6.56
2023-01-19T15:04:28.002Z,6.74
2023-01-19T15:06:57.264Z,6.66
2023-01-19T15:09:26.528Z,6.78
2023-01-19T15:11:54.725Z,6.25
2023-01-19T15:14:23.069Z,6.32
2023-01-19T15:16:51.504Z,6.33
2023-01-19T15:19:20.872Z,6.01
2023-01-19T15:21:48.716Z,6.10
2023-01-19T15:24:17.982Z,6.50
2023-01-19T15:26:46.582Z,5.98
2023-01-19T15:29:23.544Z,5.83
2023-01-19T15:31:51.923Z,6.76
2023-01-19T15:34:21.268Z,6.41
2023-01-19T15:36:49.042Z,5.86
2023-01-19T15:39:16.875Z,6.17
2023-01-19T15:41:45.243Z,5.68
2023-01-19T15:44:13.125Z,6.26
2023-01-19T15:46:41.134Z,5.93
2023-01-19T15:49:09.076Z,5.89
2023-01-19T15:51:38.356Z,5.66
2023-01-19T15:54:06.471Z,5.27
2023-01-19T15:56:35.042Z,5.77
2023-01-19T15:59:02.948Z,5.51
2023-01-19T16:01:31.950Z,5.33
2023-01-19T16:04:02.501Z,5.34
2023-01-19T16:06:31.686Z,5.13
2023-01-19T16:09:04.362Z,4.93
2023-01-19T16:11:35.038Z,4.96
2023-01-19T16:14:03.038Z,4.81
2023-01-19T16:16:31.126Z,5.10
2023-01-19T16:18:59.573Z,5.25
2023-01-19T16:21:28.033Z,5.45
2023-01-19T16:23:56.142Z,5.70
2023-01-19T16:26:30.739Z,5.55
2023-01-19T16:29:01.020Z,5.54
2023-01-19T16:31:30.308Z,5.85
2023-01-19T16:33:58.095Z,5.35
2023-01-19T16:36:29.600Z,5.91
2023-01-19T16:39:00.833Z,5.93
2023-01-19T16:41:30.245Z,5.76
2023-01-19T16:44:00.315Z,5.80
2023-01-19T16:46:32.480Z,5.59
2023-01-19T16:49:02.040Z,5.59
2023-01-19T16:51:30.540Z,4.80
2023-01-19T16:53:58.640Z,4.92
2023-01-19T16:56:26.623Z,5.24
2023-01-19T16:58:56.810Z,5.12
2023-01-19T17:01:27.568Z,5.20
2023-01-19T17:03:56.642Z,5.43
2023-01-19T17:06:25.686Z,5.53
2023-01-19T17:08:54.447Z,5.55
2023-01-19T17:11:25.295Z,5.49
2023-01-19T17:13:57.678Z,5.04
2023-01-19T17:16:26.573Z,5.10
2023-01-19T17:18:55.270Z,5.42
2023-01-19T17:21:23.107Z,5.31
2023-01-19T17:23:54.515Z,5.36
2023-01-19T17:26:23.820Z,5.16
2023-01-19T17:28:52.141Z,5.19
2023-01-19T17:31:23.384Z,5.08
2023-01-19T17:33:52.064Z,4.87
2023-01-19T17:36:24.994Z,4.92
2023-01-19T17:38:55.115Z,4.79
2023-01-19T17:41:26.014Z,4.78
2023-01-19T17:43:57.557Z,4.54
2023-01-19T17:46:29.871Z,4.73
2023-01-19T17:49:00.535Z,4.69
2023-01-19T17:51:29.728Z,4.50
2023-01-19T17:53:58.735Z,4.66
2023-01-19T17:56:32.993Z,4.64
2023-01-19T17:59:01.154Z,4.77
2023-01-19T18:01:33.371Z,4.52
2023-01-19T18:04:02.621Z,4.76
2023-01-19T18:06:30.813Z,4.69
2023-01-19T18:08:59.827Z,4.92
2023-01-19T18:11:28.926Z,4.90
2023-01-19T18:13:58.383Z,5.07
2023-01-19T18:16:30.929Z,4.83
2023-01-19T18:18:59.197Z,5.18
2023-01-19T18:21:30.418Z,5.23
2023-01-19T18:24:05.286Z,5.28
2023-01-19T18:26:36.407Z,4.98
2023-01-19T18:29:04.931Z,4.93
2023-01-19T18:31:34.594Z,5.02
2023-01-19T18:34:02.496Z,4.72
2023-01-19T18:36:34.442Z,4.68
2023-01-19T18:39:03.329Z,4.58
2023-01-19T18:41:31.309Z,4.58
2023-01-19T18:43:59.699Z,4.67
2023-01-19T18:46:28.437Z,4.65
2023-01-19T18:48:57.620Z,4.37
2023-01-19T18:51:25.457Z,4.24
2023-01-19T18:53:53.328Z,4.27
2023-01-19T18:56:21.188Z,4.20
2023-01-19T18:58:49.155Z,4.23
2023-01-19T19:01:24.988Z,4.30
2023-01-19T19:03:54.540Z,4.18
2023-01-19T19:06:27.068Z,4.05
2023-01-19T19:08:57.464Z,4.00
2023-01-19T19:11:27.763Z,3.84
2023-01-19T19:13:58.711Z,3.94
2023-01-19T19:16:27.717Z,3.57
2023-01-19T19:18:55.683Z,3.59
2023-01-19T19:21:26.412Z,3.62
2023-01-19T19:23:56.742Z,3.57
2023-01-19T19:26:27.947Z,3.54
2023-01-19T19:28:56.080Z,3.66
2023-01-19T19:31:26.152Z,3.56
2023-01-19T19:33:54.868Z,3.56
2023-01-19T19:36:26.325Z,3.50
2023-01-19T19:38:54.975Z,3.57
2023-01-19T19:41:26.913Z,3.47
2023-01-19T19:43:56.554Z,3.08
2023-01-19T19:46:26.571Z,3.17
2023-01-19T19:48:55.838Z,3.11
2023-01-19T19:51:27.678Z,3.03
2023-01-19T19:53:57.381Z,2.96
2023-01-19T19:56:29.249Z,2.98
2023-01-19T19:58:59.996Z,2.96
2023-01-19T20:01:33.214Z,2.91
2023-01-19T20:04:07.498Z,2.96
2023-01-19T20:06:39.897Z,3.13
2023-01-19T20:09:10.126Z,3.27
2023-01-19T20:11:39.820Z,2.91
2023-01-19T20:14:08.875Z,3.09
2023-01-19T20:16:37.966Z,3.48
2023-01-19T20:19:06.312Z,3.49
2023-01-19T20:21:38.807Z,3.56
2023-01-19T20:24:10.647Z,3.52
2023-01-19T20:26:43.573Z,3.69
2023-01-19T20:29:12.120Z,3.72
2023-01-19T20:31:44.318Z,3.77
2023-01-19T20:34:15.322Z,3.61
2023-01-19T20:36:49.335Z,3.66
2023-01-19T20:39:18.051Z,3.40
2023-01-19T20:41:45.841Z,3.35
2023-01-19T20:44:15.937Z,3.21
2023-01-19T20:46:43.957Z,3.50
2023-01-19T20:49:11.972Z,3.40
2023-01-19T20:51:43.373Z,3.45
2023-01-19T20:54:14.119Z,3.33
2023-01-19T20:56:43.495Z,3.29
2023-01-19T20:59:13.445Z,3.06
2023-01-19T21:01:42.309Z,3.34
2023-01-19T21:04:11.419Z,3.05
2023-01-19T21:06:39.729Z,2.93
2023-01-19T21:09:08.854Z,2.91
2023-01-19T21:11:40.126Z,2.70
2023-01-19T21:14:09.438Z,3.00
2023-01-19T21:16:38.521Z,3.17
2023-01-19T21:19:06.948Z,3.14
2023-01-19T21:21:34.800Z,3.20
2023-01-19T21:24:04.804Z,3.03
2023-01-19T21:26:33.658Z,2.93
2023-01-19T21:29:04.967Z,3.09
2023-01-19T21:31:32.807Z,3.17
2023-01-19T21:34:00.927Z,3.19
2023-01-19T21:36:28.944Z,3.09
2023-01-19T21:39:00.537Z,3.04
2023-01-19T21:41:30.951Z,3.00
2023-01-19T21:44:02.683Z,3.30
2023-01-19T21:46:32.910Z,3.29
2023-01-19T21:49:09.862Z,3.37
2023-01-19T21:51:38.369Z,3.59
2023-01-19T21:54:08.063Z,3.46
2023-01-19T21:56:37.935Z,3.37
2023-01-19T21:59:07.545Z,3.67
2023-01-19T22:01:48.536Z,3.41
2023-01-19T22:04:16.510Z,3.42
2023-01-19T22:06:44.287Z,3.37
2023-01-19T22:09:12.170Z,3.70
2023-01-19T22:11:40.189Z,3.82
2023-01-19T22:14:10.627Z,3.46
2023-01-19T22:16:38.618Z,3.63
2023-01-19T22:19:08.154Z,3.53
2023-01-19T22:21:36.967Z,3.13
2023-01-19T22:24:06.289Z,3.46
2023-01-19T22:26:35.009Z,3.50
2023-01-19T22:29:05.572Z,3.57
2023-01-19T22:31:34.809Z,3.43
2023-01-19T22:34:02.811Z,3.93
2023-01-19T22:36:33.946Z,4.13
2023-01-19T22:39:05.000Z,4.28
2023-01-19T22:41:35.867Z,4.15
2023-01-19T22:44:07.307Z,4.24
2023-01-19T22:46:38.486Z,3.69
2023-01-19T22:49:08.471Z,3.88
2023-01-19T22:51:37.044Z,3.54
2023-01-19T22:54:05.744Z,4.19
2023-01-19T22:56:39.269Z,4.35
2023-01-19T22:59:07.684Z,4.58
2023-01-19T23:01:40.079Z,4.75
2023-01-19T23:04:09.996Z,4.82
2023-01-19T23:06:39.135Z,4.64
2023-01-19T23:09:11.229Z,4.94
2023-01-19T23:11:42.816Z,5.03
2023-01-19T23:14:16.273Z,5.28
2023-01-19T23:16:47.084Z,5.19
2023-01-19T23:19:17.062Z,5.23
2023-01-19T23:21:45.511Z,5.03
2023-01-19T23:24:13.500Z,4.77
2023-01-19T23:26:41.526Z,4.61
2023-01-19T23:29:14.739Z,4.76
2023-01-19T23:31:48.506Z,4.06
2023-01-19T23:34:17.572Z,4.45
2023-01-19T23:36:45.698Z,4.48
2023-01-19T23:39:17.063Z,4.38
2023-01-19T23:41:45.178Z,4.58
2023-01-19T23:44:13.190Z,4.04
2023-01-19T23:46:41.124Z,3.81
2023-01-19T23:49:10.460Z,3.94
2023-01-19T23:51:39.978Z,3.68
2023-01-19T23:54:08.490Z,3.74
2023-01-19T23:56:38.690Z,3.62
2023-01-19T23:59:10.352Z,3.59
